Aérodrome :
LOGIN :

S'inscrire | Disclaimer

   EN    FR    IT 

 










Légende :    VFR   VFR Marginal   IFR   IFR Intensif   IFR Très Intensif
Visi : 
Plafond : 
>= 8 km
>= 3000ft
5 à 8 km
1000 à 3000 ft
1500m à 5 km
500 à 1000 ft
800 à 1500m
200 à 500 ft
< 800m
< 200 ft
Symboles :   Orages  Brouillard  Fortes neiges  Fortes précipitations  Vent > 20 kt
SIGMETs :   Divers  Orages  Givrage  Turbulence  Onde Orograph.  Cendres Volcan.






- Altitude de l'aérodrome : 20 ft
- Code IATA : BJA


DAAE - Soummam - Bejaia

DERNIER METAR :
  • 151300Z 33009KT 9999 FEW020 26/15 Q1017

METARs EXPIRÉS :
  • 151200Z 26009KT 9999 SCT020 28/10 Q1018
  • 151100Z 26009KT 9999 FEW020 FEW023TCU 27/13 Q1018

TAF COR TAF DAAE
Valide du 15 à 12h jusqu'au 16 à 12h UTC


151100Z 1512/1612 32012KT 9999 FEW020 FEW023TCU
PROB30
TEMPO 1513/1518 34015G25KT 4000 -TSRA FEW020CB BKN030
BECMG 1519/1521 22008KT NSW
PROB30
TEMPO 1600/1606 VRB02KT 3000 BR BKN010
BECMG 1606/1608 02008KT



MET'MAP, la Météo Aéronautique d'un coup d'oeil ! - Copyright ORBIFLY Décembre 2007 - Disclaimer

ORBIFLY MET'MAP TEAM :

Programmation & Développement : Alexandra Zaïnal
Conception & Développement : Baudouin d'Aumeries
Co-Programmation & Développement : Marc-Olivier Méhu
Soutien technique & logistique : Manuel Goepfert

Contact : metmap@orbifly.com




SOURCES & CREDITS :

   NOAA